createdAt,value
2022-12-19T00:01:58.315Z,101999.94
2022-12-19T00:04:25.961Z,102003.91
2022-12-19T00:06:54.070Z,102005.19
2022-12-19T00:09:21.567Z,102011.69
2022-12-19T00:11:49.390Z,102014.28
2022-12-19T00:14:18.301Z,102003.09
2022-12-19T00:16:45.929Z,102002.25
2022-12-19T00:19:14.009Z,101989.03
2022-12-19T00:21:41.532Z,101990.06
2022-12-19T00:24:18.081Z,101977.63
2022-12-19T00:26:49.529Z,101969.34
2022-12-19T00:29:18.796Z,101966.00
2022-12-19T00:31:46.703Z,101973.66
2022-12-19T00:34:15.631Z,101961.50
2022-12-19T00:36:43.210Z,101967.66
2022-12-19T00:39:11.590Z,101958.97
2022-12-19T00:41:41.881Z,101963.88
2022-12-19T00:44:12.191Z,101951.22
2022-12-19T00:46:44.474Z,101951.50
2022-12-19T00:49:19.413Z,101942.91
2022-12-19T00:51:47.631Z,101940.00
2022-12-19T00:54:15.556Z,101941.03
2022-12-19T00:56:43.309Z,101936.22
2022-12-19T00:59:11.015Z,101948.41
2022-12-19T01:01:42.194Z,101936.03
2022-12-19T01:04:32.455Z,101936.88
2022-12-19T01:07:03.293Z,101941.25
2022-12-19T01:09:34.843Z,101941.19
2022-12-19T01:12:24.178Z,101935.81
2022-12-19T01:14:54.566Z,101936.47
2022-12-19T01:17:25.330Z,101932.91
2022-12-19T01:19:55.367Z,101934.28
2022-12-19T01:22:22.946Z,101928.19
2022-12-19T01:24:50.496Z,101933.00
2022-12-19T01:27:18.015Z,101931.66
2022-12-19T01:29:52.136Z,101929.03
2022-12-19T01:32:21.050Z,101929.13
2022-12-19T01:34:48.591Z,101925.34
2022-12-19T01:37:17.480Z,101917.38
2022-12-19T01:39:46.225Z,101918.63
2022-12-19T01:42:16.277Z,101902.50
2022-12-19T01:45:27.662Z,101901.84
2022-12-19T01:48:06.155Z,101889.50
2022-12-19T01:50:38.976Z,101883.00
2022-12-19T01:53:12.556Z,101893.69
2022-12-19T01:55:42.426Z,101888.88
2022-12-19T01:58:12.368Z,101890.31
2022-12-19T02:00:42.268Z,101886.78
2022-12-19T02:03:16.553Z,101890.31
2022-12-19T02:05:45.581Z,101880.06
2022-12-19T02:08:15.630Z,101868.13
2022-12-19T02:10:43.205Z,101868.44
2022-12-19T02:13:11.395Z,101857.94
2022-12-19T02:15:48.653Z,101851.56
2022-12-19T02:18:27.429Z,101850.59
2022-12-19T02:21:30.777Z,101837.25
2022-12-19T02:24:42.381Z,101826.13
2022-12-19T02:27:40.316Z,101818.59
2022-12-19T02:30:11.687Z,101819.41
2022-12-19T02:32:50.002Z,101814.16
2022-12-19T02:35:28.628Z,101825.28
2022-12-19T02:38:06.766Z,101818.16
2022-12-19T02:40:43.270Z,101820.78
2022-12-19T02:43:16.733Z,101815.22
2022-12-19T02:45:46.225Z,101818.97
2022-12-19T02:48:19.434Z,101817.84
2022-12-19T02:50:50.145Z,101820.25
2022-12-19T02:53:23.540Z,101816.69
2022-12-19T02:56:12.226Z,101827.38
2022-12-19T02:58:52.513Z,101819.19
2022-12-19T03:01:31.834Z,101831.75
2022-12-19T03:04:11.287Z,101819.59
2022-12-19T03:06:49.066Z,101817.59
2022-12-19T03:09:25.651Z,101810.56
2022-12-19T03:12:02.554Z,101803.91
2022-12-19T03:14:32.348Z,101800.88
2022-12-19T03:17:05.681Z,101800.28
2022-12-19T03:19:35.675Z,101780.97
2022-12-19T03:22:03.201Z,101791.63
2022-12-19T03:24:31.078Z,101787.69
2022-12-19T03:27:06.438Z,101782.22
2022-12-19T03:29:39.144Z,101779.41
2022-12-19T03:32:11.446Z,101777.63
2022-12-19T03:34:45.232Z,101765.00
2022-12-19T03:37:16.679Z,101766.69
2022-12-19T03:39:47.541Z,101766.06
2022-12-19T03:42:35.377Z,101761.44
2022-12-19T03:45:05.662Z,101752.63
2022-12-19T03:47:38.835Z,101762.78
2022-12-19T03:50:09.419Z,101753.13
2022-12-19T03:52:46.120Z,101753.53
2022-12-19T03:55:17.545Z,101745.34
2022-12-19T03:57:51.408Z,101748.59
2022-12-19T04:00:19.667Z,101748.38
2022-12-19T04:02:52.265Z,101745.22
2022-12-19T04:05:24.080Z,101739.34
2022-12-19T04:07:55.204Z,101730.50
2022-12-19T04:10:27.171Z,101731.47
2022-12-19T04:13:00.053Z,101721.91
2022-12-19T04:15:36.771Z,101712.53
2022-12-19T04:18:07.871Z,101711.19
2022-12-19T04:20:41.101Z,101714.53
2022-12-19T04:23:15.912Z,101706.66
2022-12-19T04:25:48.661Z,101712.28
2022-12-19T04:28:21.030Z,101703.56
2022-12-19T04:30:49.955Z,101707.88
2022-12-19T04:33:17.607Z,101701.47
2022-12-19T04:35:46.564Z,101694.41
2022-12-19T04:38:14.154Z,101699.56
2022-12-19T04:40:41.912Z,101698.94
2022-12-19T04:43:09.896Z,101696.81
2022-12-19T04:45:37.735Z,101684.66
2022-12-19T04:48:05.752Z,101668.53
2022-12-19T04:50:35.974Z,101669.50
2022-12-19T04:53:05.068Z,101659.97
2022-12-19T04:55:32.772Z,101659.00
2022-12-19T04:58:06.137Z,101649.84
2022-12-19T05:00:34.107Z,101635.88
2022-12-19T05:03:01.931Z,101621.66
2022-12-19T05:05:29.722Z,101625.84
2022-12-19T05:08:00.353Z,101625.97
2022-12-19T05:10:29.251Z,101622.63
2022-12-19T05:12:56.734Z,101631.56
2022-12-19T05:15:24.467Z,101624.44
2022-12-19T05:17:52.121Z,101620.59
2022-12-19T05:20:19.641Z,101610.09
2022-12-19T05:22:47.210Z,101609.88
2022-12-19T05:25:14.954Z,101604.63
2022-12-19T05:27:43.860Z,101607.97
2022-12-19T05:30:12.418Z,101613.00
2022-12-19T05:32:39.960Z,101610.84
2022-12-19T05:35:08.353Z,101606.41
2022-12-19T05:37:35.977Z,101606.19
2022-12-19T05:40:03.498Z,101597.94
2022-12-19T05:42:31.000Z,101597.69
2022-12-19T05:44:59.892Z,101592.44
2022-12-19T05:47:27.438Z,101599.97
2022-12-19T05:49:54.958Z,101604.38
2022-12-19T05:52:23.011Z,101593.63
2022-12-19T05:54:50.660Z,101588.00
2022-12-19T05:57:18.196Z,101586.59
2022-12-19T05:59:45.720Z,101587.91
2022-12-19T06:02:14.658Z,101573.78
2022-12-19T06:04:42.353Z,101569.97
2022-12-19T06:07:10.116Z,101569.72
2022-12-19T06:09:38.151Z,101570.19
2022-12-19T06:12:06.133Z,101562.91
2022-12-19T06:14:34.130Z,101568.16
2022-12-19T06:17:01.755Z,101563.25
2022-12-19T06:19:31.306Z,101547.22
2022-12-19T06:21:58.889Z,101527.88
2022-12-19T06:24:26.770Z,101526.06
2022-12-19T06:26:54.334Z,101533.94
2022-12-19T06:29:21.863Z,101519.50
2022-12-19T06:31:49.864Z,101530.47
2022-12-19T06:34:39.454Z,101517.31
2022-12-19T06:37:08.380Z,101525.09
2022-12-19T06:39:36.355Z,101533.75
2022-12-19T06:42:21.820Z,101525.59
2022-12-19T06:44:49.459Z,101516.63
2022-12-19T06:47:17.127Z,101521.19
2022-12-19T06:49:44.653Z,101521.53
2022-12-19T06:52:13.512Z,101521.63
2022-12-19T06:54:41.261Z,101524.59
2022-12-19T06:57:08.968Z,101522.81
2022-12-19T06:59:36.465Z,101518.72
2022-12-19T07:02:13.239Z,101520.25
2022-12-19T07:04:44.675Z,101515.69
2022-12-19T07:07:13.818Z,101510.88
2022-12-19T07:09:41.965Z,101518.56
2022-12-19T07:12:09.541Z,101511.25
2022-12-19T07:14:37.093Z,101502.28
2022-12-19T07:17:06.217Z,101502.28
2022-12-19T07:19:34.828Z,101508.25
2022-12-19T07:22:04.802Z,101507.44
2022-12-19T07:24:35.657Z,101517.56
2022-12-19T07:27:03.502Z,101507.03
2022-12-19T07:29:30.993Z,101514.22
2022-12-19T07:31:58.934Z,101516.63
2022-12-19T07:34:26.544Z,101515.50
2022-12-19T07:36:54.072Z,101514.66
2022-12-19T07:39:22.735Z,101515.31
2022-12-19T07:41:51.578Z,101508.94
2022-12-19T07:44:30.331Z,101507.22
2022-12-19T07:46:58.340Z,101504.31
2022-12-19T07:49:25.852Z,101501.94
2022-12-19T07:51:53.391Z,101501.63
2022-12-19T07:54:20.983Z,101501.91
2022-12-19T07:56:48.517Z,101504.91
2022-12-19T07:59:17.680Z,101501.31
2022-12-19T08:01:45.315Z,101495.22
2022-12-19T08:04:13.150Z,101490.31
2022-12-19T08:06:41.519Z,101497.84
2022-12-19T08:09:09.348Z,101498.78
2022-12-19T08:11:36.863Z,101492.84
2022-12-19T08:14:04.739Z,101485.00
2022-12-19T08:16:49.266Z,101482.38
2022-12-19T08:19:24.700Z,101484.75
2022-12-19T08:21:54.917Z,101482.94
2022-12-19T08:24:22.488Z,101484.84
2022-12-19T08:26:50.099Z,101476.69
2022-12-19T08:29:17.667Z,101487.81
2022-12-19T08:31:46.685Z,101475.22
2022-12-19T08:34:14.208Z,101464.22
2022-12-19T08:36:41.815Z,101467.06
2022-12-19T08:39:09.569Z,101461.81
2022-12-19T08:41:37.249Z,101467.91
2022-12-19T08:44:04.961Z,101461.53
2022-12-19T08:46:32.553Z,101463.91
2022-12-19T08:49:01.632Z,101464.59
2022-12-19T08:51:29.204Z,101462.81
2022-12-19T08:53:56.768Z,101463.63
2022-12-19T08:56:24.469Z,101454.91
2022-12-19T08:58:52.769Z,101458.09
2022-12-19T09:01:23.809Z,101446.31
2022-12-19T09:05:28.861Z,101448.53
2022-12-19T09:06:40.715Z,101446.91
2022-12-19T09:09:08.478Z,101447.47
2022-12-19T09:11:45.357Z,101443.59
2022-12-19T09:14:21.202Z,101453.41
2022-12-19T09:16:49.397Z,101445.25
2022-12-19T09:19:16.994Z,101445.94
2022-12-19T09:21:45.934Z,101441.13
2022-12-19T09:24:13.482Z,101448.47
2022-12-19T09:26:42.072Z,101428.50
2022-12-19T09:29:20.083Z,101432.78
2022-12-19T09:31:53.836Z,101427.97
2022-12-19T09:34:24.911Z,101425.59
2022-12-19T09:37:06.413Z,101416.44
2022-12-19T09:39:34.868Z,101418.09
2022-12-19T09:42:34.203Z,101420.47
2022-12-19T09:45:31.585Z,101419.25
2022-12-19T09:48:01.606Z,101418.13
2022-12-19T09:50:45.910Z,101415.34
2022-12-19T09:53:23.687Z,101415.63
2022-12-19T09:55:53.836Z,101412.31
2022-12-19T09:58:32.399Z,101410.78
2022-12-19T10:01:03.366Z,101397.63
2022-12-19T10:03:40.346Z,101399.53
2022-12-19T10:07:11.128Z,101393.16
2022-12-19T10:10:01.432Z,101392.09
2022-12-19T10:12:45.273Z,101392.91
2022-12-19T10:15:20.564Z,101388.47
2022-12-19T10:18:05.382Z,101388.34
2022-12-19T10:20:36.489Z,101388.75
2022-12-19T10:23:18.714Z,101390.41
2022-12-19T10:26:00.181Z,101393.47
2022-12-19T10:28:44.020Z,101389.84
2022-12-19T10:31:21.827Z,101380.97
2022-12-19T10:33:58.182Z,101376.09
2022-12-19T10:36:48.767Z,101368.19
2022-12-19T10:39:22.214Z,101364.03
2022-12-19T10:41:55.680Z,101361.97
2022-12-19T10:44:26.689Z,101356.41
2022-12-19T10:46:54.251Z,101352.38
2022-12-19T10:49:23.564Z,101354.06
2022-12-19T10:51:58.991Z,101360.41
2022-12-19T10:54:37.941Z,101359.16
2022-12-19T10:57:21.164Z,101359.16
2022-12-19T10:59:56.618Z,101349.81
2022-12-19T11:02:35.225Z,101341.19
2022-12-19T11:05:04.534Z,101332.03
2022-12-19T11:07:32.418Z,101328.28
2022-12-19T11:10:32.951Z,101341.34
2022-12-19T11:18:05.748Z,101333.81
2022-12-19T11:22:17.331Z,101324.22
2022-12-19T11:29:15.411Z,101323.94
2022-12-19T11:29:45.797Z,101309.78
2022-12-19T11:29:47.126Z,101318.38
2022-12-19T11:30:34.364Z,101310.31
2022-12-19T11:33:15.591Z,101312.97
2022-12-19T11:35:49.254Z,101309.19
2022-12-19T11:38:22.116Z,101304.31
2022-12-19T11:40:53.968Z,101299.03
2022-12-19T11:43:45.299Z,101293.31
2022-12-19T11:46:25.843Z,101287.75
2022-12-19T11:48:56.504Z,101280.34
2022-12-19T11:51:31.234Z,101282.19
2022-12-19T11:54:09.206Z,101284.06
2022-12-19T11:56:36.781Z,101277.13
2022-12-19T11:59:16.016Z,101277.66
2022-12-19T12:01:59.212Z,101274.19
2022-12-19T12:04:44.443Z,101271.97
2022-12-19T12:07:34.211Z,101270.38
2022-12-19T12:15:24.390Z,101272.56
2022-12-19T12:24:58.624Z,101275.34
2022-12-19T12:28:31.106Z,101271.44
2022-12-19T12:31:16.421Z,101263.91
2022-12-19T12:31:20.597Z,101258.31
2022-12-19T12:31:42.239Z,101251.75
2022-12-19T12:32:06.513Z,101256.75
2022-12-19T12:35:13.513Z,101245.34
2022-12-19T12:35:30.230Z,101245.72
2022-12-19T12:39:48.605Z,101242.63
2022-12-19T12:42:32.843Z,101249.25
2022-12-19T12:45:02.428Z,101245.63
2022-12-19T12:47:30.202Z,101232.50
2022-12-19T12:50:01.720Z,101231.88
2022-12-19T12:52:35.864Z,101239.50
2022-12-19T12:55:05.482Z,101230.97
2022-12-19T12:57:38.813Z,101240.25
2022-12-19T13:00:20.693Z,101235.63
2022-12-19T13:02:53.250Z,101231.84
2022-12-19T13:05:33.429Z,101227.44
2022-12-19T13:08:02.556Z,101226.00
2022-12-19T13:10:32.564Z,101228.19
2022-12-19T13:13:01.433Z,101221.59
2022-12-19T13:15:38.456Z,101216.69
2022-12-19T13:18:34.038Z,101215.75
2022-12-19T13:21:04.365Z,101220.72
2022-12-19T13:23:47.018Z,101217.91
2022-12-19T13:26:36.821Z,101216.13
2022-12-19T13:29:26.929Z,101211.38
2022-12-19T13:32:09.056Z,101220.03
2022-12-19T13:34:37.629Z,101213.59
2022-12-19T13:39:49.333Z,101218.56
2022-12-19T13:40:33.211Z,101210.34
2022-12-19T13:43:27.475Z,101202.41
2022-12-19T13:45:58.009Z,101208.41
2022-12-19T13:48:31.322Z,101210.41
2022-12-19T13:51:01.746Z,101214.72
2022-12-19T13:53:30.481Z,101209.13
2022-12-19T13:56:03.244Z,101213.09
2022-12-19T13:58:33.069Z,101216.22
2022-12-19T14:01:04.413Z,101215.56
2022-12-19T14:03:37.547Z,101212.59
2022-12-19T14:06:17.658Z,101206.97
2022-12-19T14:09:41.548Z,101210.00
2022-12-19T14:12:22.736Z,101214.59
2022-12-19T14:14:48.675Z,101208.63
2022-12-19T14:17:30.394Z,101197.25
2022-12-19T14:20:15.489Z,101197.38
2022-12-19T14:22:45.602Z,101187.28
2022-12-19T14:27:51.729Z,101183.31
2022-12-19T14:28:24.405Z,101193.59
2022-12-19T14:30:58.968Z,101194.09
2022-12-19T14:33:43.684Z,101203.53
2022-12-19T14:36:26.207Z,101198.22
2022-12-19T14:39:23.899Z,101201.22
2022-12-19T14:42:04.101Z,101201.53
2022-12-19T14:52:11.609Z,101200.53
2022-12-19T14:52:34.686Z,101202.50
2022-12-19T14:54:10.264Z,101199.19
2022-12-19T14:54:50.653Z,101200.03
2022-12-19T14:58:58.609Z,101199.53
2022-12-19T15:01:29.575Z,101192.56
2022-12-19T15:04:48.887Z,101190.91
2022-12-19T15:07:09.248Z,101188.59
2022-12-19T15:11:05.452Z,101198.19
2022-12-19T15:14:04.045Z,101193.53
2022-12-19T15:15:46.095Z,101195.19
2022-12-19T15:18:22.023Z,101186.75
2022-12-19T15:20:49.996Z,101184.09
2022-12-19T15:23:22.061Z,101180.75
2022-12-19T15:26:07.697Z,101178.59
2022-12-19T15:28:39.425Z,101178.59
2022-12-19T15:31:18.117Z,101174.97
2022-12-19T15:34:32.176Z,101176.63
2022-12-19T15:36:34.644Z,101178.25
2022-12-19T15:39:03.559Z,101178.59
2022-12-19T15:41:31.481Z,101167.81
2022-12-19T15:44:04.223Z,101166.47
2022-12-19T15:46:33.309Z,101166.28
2022-12-19T15:49:02.419Z,101159.66
2022-12-19T15:51:30.125Z,101158.00
2022-12-19T15:54:22.188Z,101158.00
2022-12-19T15:56:47.853Z,101144.03
2022-12-19T15:59:24.383Z,101140.75
2022-12-19T16:01:52.894Z,101143.03
2022-12-19T16:04:23.153Z,101136.75
2022-12-19T16:06:50.811Z,101128.59
2022-12-19T16:09:21.048Z,101128.59
2022-12-19T16:11:48.843Z,101135.69
2022-12-19T16:14:17.078Z,101130.22
2022-12-19T16:16:50.077Z,101144.50
2022-12-19T16:19:26.518Z,101137.00
2022-12-19T16:21:54.878Z,101133.00
2022-12-19T16:24:23.060Z,101136.00
2022-12-19T16:26:54.321Z,101130.34
2022-12-19T16:29:24.972Z,101130.66
2022-12-19T16:31:52.583Z,101122.69
2022-12-19T16:34:22.508Z,101118.69
2022-12-19T16:36:52.007Z,101119.03
2022-12-19T16:39:19.597Z,101110.09
2022-12-19T16:41:47.809Z,101121.97
2022-12-19T16:44:20.213Z,101111.34
2022-12-19T16:46:51.057Z,101122.91
2022-12-19T16:49:22.708Z,101118.28
2022-12-19T16:51:52.327Z,101117.28
2022-12-19T16:54:21.639Z,101104.38
2022-12-19T16:56:50.735Z,101116.94
2022-12-19T16:59:21.367Z,101107.59
2022-12-19T17:01:50.894Z,101103.81
2022-12-19T17:04:21.447Z,101107.25
2022-12-19T17:06:51.725Z,101106.44
2022-12-19T17:09:23.125Z,101106.91
2022-12-19T17:11:53.939Z,101100.47
2022-12-19T17:14:23.538Z,101097.66
2022-12-19T17:16:54.999Z,101106.44
2022-12-19T17:19:24.663Z,101105.91
2022-12-19T17:21:53.791Z,101109.03
2022-12-19T17:24:21.359Z,101103.09
2022-12-19T17:26:48.897Z,101099.41
2022-12-19T17:29:16.508Z,101109.09
2022-12-19T17:31:44.273Z,101108.13
2022-12-19T17:34:18.731Z,101102.19
2022-12-19T17:36:46.499Z,101098.53
2022-12-19T17:39:23.879Z,101104.78
2022-12-19T17:41:52.078Z,101103.13
2022-12-19T17:44:19.944Z,101105.97
2022-12-19T17:46:48.490Z,101103.13
2022-12-19T17:49:18.218Z,101105.13
2022-12-19T17:51:52.183Z,101110.56
2022-12-19T17:54:19.982Z,101113.50
2022-12-19T17:56:48.971Z,101111.69
2022-12-19T17:59:16.504Z,101115.53
2022-12-19T18:01:46.854Z,101115.81
2022-12-19T18:04:17.399Z,101114.34
2022-12-19T18:06:45.519Z,101116.63
2022-12-19T18:09:19.662Z,101123.25
2022-12-19T18:11:49.374Z,101119.28
2022-12-19T18:14:17.328Z,101120.34
2022-12-19T18:16:45.867Z,101119.16
2022-12-19T18:19:18.155Z,101121.38
2022-12-19T18:21:46.000Z,101120.97
2022-12-19T18:24:14.689Z,101111.88
2022-12-19T18:26:42.227Z,101111.03
2022-12-19T18:29:11.466Z,101103.59
2022-12-19T18:31:43.468Z,101104.25
2022-12-19T18:34:20.008Z,101100.47
2022-12-19T18:36:47.589Z,101104.41
2022-12-19T18:39:21.475Z,101107.63
2022-12-19T18:41:49.955Z,101101.13
2022-12-19T18:44:19.150Z,101107.06
2022-12-19T18:46:49.576Z,101106.09
2022-12-19T18:49:18.217Z,101098.81
2022-12-19T18:51:46.182Z,101117.91
2022-12-19T18:54:14.782Z,101113.41
2022-12-19T18:56:42.412Z,101115.41
2022-12-19T18:59:10.919Z,101118.38
2022-12-19T19:01:42.863Z,101111.75
2022-12-19T19:04:12.988Z,101112.09
2022-12-19T19:06:46.742Z,101127.69
2022-12-19T19:09:19.233Z,101126.16
2022-12-19T19:11:49.477Z,101125.50
2022-12-19T19:14:17.039Z,101130.63
2022-12-19T19:16:46.065Z,101119.53
2022-12-19T19:19:17.413Z,101118.38
2022-12-19T19:21:45.232Z,101111.97
2022-12-19T19:24:15.742Z,101115.34
2022-12-19T19:26:43.396Z,101107.75
2022-12-19T19:29:10.945Z,101119.38
2022-12-19T19:31:44.487Z,101115.03
2022-12-19T19:34:16.298Z,101123.97
2022-12-19T19:36:49.311Z,101123.50
2022-12-19T19:39:19.709Z,101122.94
2022-12-19T19:41:47.235Z,101118.00
2022-12-19T19:44:14.790Z,101113.41
2022-12-19T19:46:42.604Z,101108.44
2022-12-19T19:49:10.388Z,101112.47
2022-12-19T19:51:39.458Z,101113.44
2022-12-19T19:54:07.097Z,101109.44
2022-12-19T19:56:34.931Z,101112.25
2022-12-19T19:59:02.583Z,101120.06
2022-12-19T20:01:30.174Z,101119.25
2022-12-19T20:03:57.954Z,101110.44
2022-12-19T20:06:25.949Z,101123.38
2022-12-19T20:08:54.886Z,101123.69
2022-12-19T20:11:22.475Z,101116.22
2022-12-19T20:13:50.037Z,101118.38
2022-12-19T20:16:19.607Z,101120.84
2022-12-19T20:18:49.814Z,101120.69
2022-12-19T20:21:19.650Z,101131.22
2022-12-19T20:23:47.167Z,101127.47
2022-12-19T20:26:17.558Z,101130.75
2022-12-19T20:28:48.921Z,101129.91
2022-12-19T20:31:18.226Z,101125.78
2022-12-19T20:33:46.180Z,101116.34
2022-12-19T20:36:14.164Z,101124.97
2022-12-19T20:38:42.085Z,101129.44
2022-12-19T20:41:09.688Z,101117.00
2022-12-19T20:43:38.997Z,101115.63
2022-12-19T20:46:08.002Z,101111.88
2022-12-19T20:48:35.946Z,101106.56
2022-12-19T20:51:05.117Z,101116.34
2022-12-19T20:53:33.586Z,101116.00
2022-12-19T20:56:02.454Z,101105.94
2022-12-19T20:58:32.691Z,101120.59
2022-12-19T21:01:07.182Z,101129.81
2022-12-19T21:03:35.257Z,101112.56
2022-12-19T21:06:03.372Z,101130.16
2022-12-19T21:08:31.131Z,101120.06
2022-12-19T21:11:00.333Z,101135.00
2022-12-19T21:13:28.005Z,101142.25
2022-12-19T21:15:56.923Z,101143.53
2022-12-19T21:18:26.514Z,101138.19
2022-12-19T21:20:54.231Z,101130.72
2022-12-19T21:23:22.471Z,101127.69
2022-12-19T21:25:50.244Z,101143.38
2022-12-19T21:28:18.149Z,101132.75
2022-12-19T21:30:45.839Z,101140.53
2022-12-19T21:33:13.406Z,101142.38
2022-12-19T21:35:42.307Z,101136.59
2022-12-19T21:38:09.807Z,101130.53
2022-12-19T21:40:37.352Z,101135.16
2022-12-19T21:43:11.424Z,101128.84
2022-12-19T21:45:39.979Z,101121.25
2022-12-19T21:48:07.627Z,101124.97
2022-12-19T21:50:35.310Z,101119.53
2022-12-19T21:53:04.249Z,101111.53
2022-12-19T21:55:31.768Z,101121.59
2022-12-19T21:58:00.555Z,101120.28
2022-12-19T22:00:28.213Z,101124.03
2022-12-19T22:03:13.282Z,101118.53
2022-12-19T22:05:42.268Z,101122.88
2022-12-19T22:08:11.923Z,101130.69
2022-12-19T22:10:39.887Z,101133.16
2022-12-19T22:13:07.436Z,101123.25
2022-12-19T22:15:36.653Z,101109.09
2022-12-19T22:18:04.532Z,101113.78
2022-12-19T22:20:32.037Z,101119.88
2022-12-19T22:22:59.591Z,101118.06
2022-12-19T22:25:28.433Z,101115.88
2022-12-19T22:27:56.317Z,101106.44
2022-12-19T22:30:23.831Z,101113.06
2022-12-19T22:32:51.386Z,101101.84
2022-12-19T22:35:19.610Z,101109.09
2022-12-19T22:37:47.207Z,101113.78
2022-12-19T22:40:14.956Z,101113.50
2022-12-19T22:42:43.819Z,101107.59
2022-12-19T22:45:12.005Z,101113.28
2022-12-19T22:47:42.127Z,101113.09
2022-12-19T22:50:11.262Z,101100.44
2022-12-19T22:52:39.130Z,101109.53
2022-12-19T22:55:07.674Z,101124.84
2022-12-19T22:57:35.294Z,101121.53
2022-12-19T23:00:05.621Z,101116.91
2022-12-19T23:02:33.379Z,101111.97
2022-12-19T23:05:00.983Z,101115.22
2022-12-19T23:07:28.521Z,101112.56
2022-12-19T23:09:56.024Z,101113.84
2022-12-19T23:12:23.552Z,101110.88
2022-12-19T23:14:51.108Z,101118.06
2022-12-19T23:17:20.059Z,101117.16
2022-12-19T23:19:47.563Z,101113.69
2022-12-19T23:22:15.263Z,101099.38
2022-12-19T23:24:44.601Z,101100.56
2022-12-19T23:27:12.127Z,101100.94
2022-12-19T23:29:39.627Z,101090.81
2022-12-19T23:32:07.503Z,101092.00
2022-12-19T23:34:37.098Z,101107.59
2022-12-19T23:37:12.693Z,101115.22
2022-12-19T23:39:40.526Z,101123.19
2022-12-19T23:42:08.092Z,101119.34
2022-12-19T23:44:35.786Z,101112.84
2022-12-19T23:47:04.147Z,101110.19
2022-12-19T23:49:32.520Z,101104.22
2022-12-19T23:52:01.875Z,101105.06
2022-12-19T23:54:29.467Z,101102.19
2022-12-19T23:56:57.062Z,101088.91
2022-12-19T23:59:24.594Z,101093.81
